US Aviators Van Nuys Flight School Los Angeles Pilot school at Van Nuys Simulator Flight Training Profesional Pilot Instruction Learn to Fly

U.S. Aviators

Learn to fly here! (818) 779-2105

Weather at Van Nuys Airport

Observed:Sat Nov 1, 02:51 PDT
Age:52 min ago
Wind:Variable at 2 mph
Visibility:10 miles
Clouds:Clear skies
Temperature:55°F (13°C)
Dewpoint:52°F (11°C)
Humidity:88%
Barometer:1011 hPa (29.86 in Hg)

METAR

KVNY 010951Z AUTO VRB03KT 10SM CLR 13/11 A2986 RMK AO2 SLP105 T01330111